Station: Rolleston Airport  

  Atmospheric Gas Attenuation - ITU Rec 676-11   ----------------- dB/100km -----------------
Date Time Temp RH % AH g/m3 Dew Point Wind Direction Speed kph Gust kph Barometer mB Rainfall Since 9am 24GHz 47GHz 76GHz 122GHz 134GHz 241GHz
06/05 02:00 20 74 12.79 15.2 9 17 1016.7 0 28.2 31.0 53.7 141.4 146.0 505.5
06/05 01:50 20.1 73 12.69 15.1 11 13 1016.8 0 27.9 30.8 53.2 140.1 144.4 500.0
06/05 01:40 20.3 73 12.84 15.3 9 11 1016.9 0 28.2 31.0 53.7 141.5 146.1 506.0
06/05 01:30 20.4 72 12.74 15.2 9 19 1016.9 0 28.0 30.8 53.2 140.2 144.5 500.5
06/05 01:20 20.5 71 12.63 15.2 9 13 1017 0 27.8 30.6 52.7 138.8 142.8 494.6
06/05 01:10 20.5 71 12.63 15.2 7 11 1017 0 27.8 30.6 52.7 138.8 142.8 494.6
06/05 01:00 20.7 71 12.78 15.3 9 17 1017.1 0 28.1 30.8 53.2 140.1 144.5 500.6
06/05 00:50 20.9 70 12.75 15.2 7 11 1017.1 0 28.0 30.6 52.9 139.4 143.7 497.9
06/05 00:40 21 70 12.82 15.3 7 7 1017.1 0 28.2 30.7 53.1 140.0 144.5 500.6
06/05 00:30 21.2 69 12.79 15.3 9 15 1017.2 0 28.1 30.6 52.9 139.3 143.7 497.9
06/05 00:20 21.2 68 12.6 15.2 7 7 1017.2 0 27.7 30.3 52.1 137.2 141.1 488.8
06/05 00:10 21.3 68 12.67 15.3 15 19 1017.2 0 27.8 30.4 52.3 137.8 141.9 491.5
06/05 00:00 21.3 69 12.86 15.4 9 15 1017.2 0 28.2 30.7 53.1 139.9 144.5 500.6
05/05 23:50 21.4 68 12.75 15.4 7 9 1017.4 0 28.0 30.5 52.6 138.6 142.8 494.8
05/05 23:40 21.6 68 12.9 15.4 7 9 1017.4 0 28.3 30.7 53.1 139.9 144.5 500.7
05/05 23:30 21.9 67 12.93 15.5 11 20 1017.4 0 28.3 30.6 53.0 139.7 144.4 500.2
05/05 23:20 22 67 13 15.6 13 20 1017.4 0 28.5 30.7 53.2 140.3 145.1 502.9
05/05 23:10 22.3 66 13.03 15.6 11 17 1017.5 0 28.5 30.6 53.1 140.1 145.0 502.4
05/05 23:00 22.4 66 13.11 15.7 13 22 1017.6 0 28.7 30.7 53.4 140.8 145.9 505.6
05/05 22:50 22.6 64 12.86 15.6 13 20 1017.6 0 28.1 30.3 52.2 137.7 142.1 492.5
05/05 22:40 22.7 64 12.93 15.7 15 19 1017.6 0 28.3 30.3 52.5 138.3 142.9 495.1
05/05 22:30 22.8 65 13.21 15.9 15 22 1017.6 0 28.9 30.8 53.5 141.2 146.5 507.8
05/05 22:20 22.8 66 13.41 16.1 11 15 1017.6 0 29.3 31.1 54.4 143.4 149.2 517.3
05/05 22:10 22.9 66 13.49 16.2 9 11 1017.7 0 29.4 31.2 54.7 144.1 150.2 520.5
05/05 22:00 23 65 13.36 16.1 11 17 1017.7 0 29.2 31.0 54.0 142.5 148.2 513.6
05/05 21:50 23.3 64 13.38 16.1 9 11 1017.7 0 29.2 30.9 53.9 142.2 147.9 512.6
05/05 21:40 23.4 62 13.04 15.9 7 9 1017.6 0 28.5 30.3 52.4 138.2 143.1 495.9
05/05 21:30 23.7 62 13.26 16 9 17 1017.6 0 28.9 30.5 53.1 140.1 145.5 504.3
05/05 21:20 23.8 61 13.12 15.8 9 11 1017.6 0 28.6 30.3 52.5 138.4 143.4 497.1
05/05 21:10 23.7 61 13.05 15.9 9 11 1017.5 0 28.5 30.2 52.3 137.8 142.7 494.4
05/05 21:00 23.5 62 13.11 15.8 7 11 1017.5 0 28.6 30.4 52.7 138.8 143.8 498.5
05/05 20:50 23.2 60 12.47 15 7 9 1017.6 0 27.3 29.4 50.3 132.4 135.8 470.6
05/05 20:40 23.2 60 12.47 15 4 7 1017.7 0 27.3 29.4 50.3 132.4 135.9 470.6
05/05 20:30 22.8 59 11.99 14.4 6 13 1017.5 0 26.3 28.8 48.6 127.9 130.2 450.8
05/05 20:20 22.3 59 11.65 13.9 6 7 1017.3 0 25.6 28.4 47.5 125.1 126.5 438.0
05/05 20:10 22.3 59 11.65 13.9 7 7 1017.2 0 25.6 28.4 47.5 125.1 126.5 438.0
05/05 20:00 22.2 61 11.98 14.3 6 9 1017.3 0 26.3 28.9 48.9 128.8 131.1 453.7
05/05 19:50 22.3 59 11.65 14.1 4 4 1016.9 0 25.6 28.4 47.5 125.0 126.5 437.9
05/05 19:40 22.6 58 11.65 13.9 4 4 1016.7 0 25.6 28.3 47.3 124.5 126.0 436.1
05/05 19:30 22.9 57 11.65 13.9 7 9 1016.6 0 25.6 28.2 47.1 124.1 125.5 434.4
05/05 19:20 22.7 58 11.72 14 7 7 1016.4 0 25.7 28.3 47.5 125.1 126.7 438.7
05/05 19:10 23 57 11.71 14 7 7 1016.5 0 25.7 28.2 47.3 124.5 126.1 436.6
05/05 19:00 23.2 57 11.85 14.2 7 9 1016.3 0 26.0 28.4 47.7 125.7 127.6 441.7
05/05 18:50 23.3 57 11.92 14.3 7 7 1016.2 0 26.1 28.4 47.9 126.2 128.3 444.3
05/05 18:40 23 58 11.92 14.3 7 9 1016 0 26.1 28.5 48.1 126.7 128.8 445.9
05/05 18:30 23.5 56 11.84 14.2 7 9 1015.9 0 25.9 28.2 47.5 125.0 126.9 439.5
05/05 18:20 23.6 55 11.7 14 7 7 1016 0 25.6 28.0 46.9 123.4 125.0 432.7
05/05 18:10 24 54 11.75 14.1 7 7 1015.8 0 25.7 27.9 46.8 123.3 125.0 432.6
05/05 18:00 24.2 52 11.44 13.7 6 6 1015.7 0 25.0 27.4 45.5 119.8 120.7 417.8
05/05 17:50 24.4 51 11.35 13.6 6 6 1015.6 0 24.8 27.2 45.0 118.6 119.2 412.7
05/05 17:40 24.8 49 11.15 13.6 6 6 1015.7 0 24.4 26.8 44.1 115.9 116.2 402.0
05/05 17:30 25.2 49 11.41 13.7 6 7 1015.4 0 24.9 27.0 44.8 118.0 118.8 411.1
05/05 17:20 25.7 46 11.01 13.5 6 6 1015.3 0 24.1 26.3 43.0 113.2 113.1 391.4
05/05 17:10 26 45 10.96 13.4 6 6 1015.1 0 23.9 26.1 42.7 112.3 112.0 387.7
05/05 17:00 26.3 46 11.39 13.8 4 6 1015.2 0 24.8 26.7 44.1 116.1 116.9 404.6
05/05 16:50 26.6 45 11.33 13.7 4 6 1015.3 0 24.7 26.5 43.7 115.1 115.7 400.6
05/05 16:40 26.6 45 11.33 13.7 6 6 1015 0 24.7 26.5 43.7 115.1 115.7 400.5
05/05 16:30 26.7 43 10.88 13.4 4 6 1015 0 23.7 25.8 42.0 110.5 110.1 381.0
05/05 16:20 26.8 42 10.69 13.1 6 6 1015.3 0 23.3 25.5 41.3 108.6 107.7 372.7
05/05 16:10 27 42 10.81 13.3 2 2 1015.1 0 23.6 25.6 41.6 109.5 108.8 376.7
05/05 16:00 27 43 11.07 13.4 4 7 1014.7 0 24.1 26.0 42.5 111.9 111.9 387.4
05/05 15:50 27 42 10.81 13 0 0 1015 0 23.6 25.6 41.6 109.4 108.8 376.6
05/05 15:40 26.9 42 10.75 12.9 6 7 1014.9 0 23.4 25.5 41.4 109.0 108.3 374.6
05/05 15:30 27.1 42 10.87 13.1 6 7 1015 0 23.7 25.6 41.8 109.9 109.4 378.7
05/05 15:20 26.9 42 10.75 12.9 2 4 1014.7 0 23.4 25.5 41.4 109.0 108.2 374.5
05/05 15:10 27 42 10.81 13.3 4 7 1014.9 0 23.6 25.6 41.6 109.4 108.8 376.6
05/05 15:00 26.9 43 11.01 13.3 6 7 1014.9 0 24.0 25.9 42.4 111.5 111.4 385.4
05/05 14:50 26.6 43 10.82 13 6 7 1015 0 23.6 25.7 41.8 110.1 109.5 378.9
05/05 14:40 26.6 41 10.32 12.6 7 7 1014.7 0 22.6 25.0 40.0 105.2 103.5 358.0
05/05 14:30 26.8 43 10.95 13.2 6 9 1014.6 0 23.9 25.8 42.2 111.0 110.8 383.3
05/05 14:20 27 42 10.81 13 7 9 1014.9 0 23.6 25.6 41.6 109.4 108.8 376.6
05/05 14:10 26.7 40 10.13 12.3 6 7 1015.1 0 22.2 24.7 39.3 103.3 101.2 349.9
05/05 14:00 26.6 43 10.82 13 4 7 1015 0 23.6 25.7 41.8 110.1 109.5 378.9
05/05 13:50 27 42 10.81 13 9 9 1015 0 23.6 25.6 41.6 109.4 108.8 376.6
05/05 13:40 26.8 42 10.69 13.1 2 4 1015 0 23.3 25.5 41.3 108.6 107.7 372.6
05/05 13:30 26.8 42 10.69 12.8 2 7 1015.3 0 23.3 25.5 41.3 108.6 107.7 372.7
05/05 13:20 26.9 42 10.75 13.2 0 0 1015.3 0 23.4 25.5 41.5 109.0 108.3 374.7
05/05 13:10 26.8 42 10.69 13.1 0 2 1015.4 0 23.3 25.5 41.3 108.6 107.7 372.7
05/05 13:00 26.6 41 10.32 12.6 4 7 1015.3 0 22.6 25.0 40.1 105.3 103.6 358.2
05/05 12:50 26.6 43 10.82 13.3 4 4 1015.6 0 23.6 25.7 41.9 110.1 109.6 379.1
05/05 12:40 26.9 44 11.26 13.9 2 2 1015.8 0 24.5 26.3 43.3 114.1 114.5 396.3
05/05 12:30 26.4 45 11.2 13.5 2 4 1015.5 0 24.4 26.4 43.4 114.1 114.4 396.1
05/05 12:20 26.5 45 11.26 13.6 4 4 1015.8 0 24.5 26.4 43.6 114.6 115.0 398.2
05/05 12:10 26.2 45 11.08 13.3 6 6 1016 0 24.2 26.3 43.1 113.3 113.3 392.1
05/05 12:00 25.9 48 11.62 14.1 6 9 1016.1 0 25.3 27.2 45.2 119.1 120.4 416.9
05/05 11:50 26 47 11.44 13.8 6 6 1016.2 0 24.9 26.9 44.5 117.2 118.0 408.6
05/05 11:40 25.9 47 11.38 14 2 4 1016.4 0 24.8 26.8 44.4 116.7 117.4 406.6
05/05 11:30 26.4 47 11.7 14.2 4 11 1016.6 0 25.4 27.2 45.3 119.2 120.7 417.9
05/05 11:20 26.2 48 11.82 14.3 0 2 1016.7 0 25.7 27.4 45.9 120.8 122.5 424.2
05/05 11:10 26.3 48 11.88 14.4 4 7 1016.8 0 25.8 27.5 46.0 121.2 123.1 426.3
05/05 11:00 27.2 47 12.23 15.2 2 4 1017.1 0 26.5 27.7 46.9 123.4 126.0 436.7
05/05 10:50 25.6 51 12.14 14.7 2 4 1017.3 0 26.4 28.1 47.5 125.0 127.5 441.7
05/05 10:40 25.4 53 12.48 15.1 2 2 1017.3 0 27.1 28.7 48.9 128.9 132.2 458.0
05/05 10:30 25.1 53 12.27 14.9 2 9 1017.3 0 26.7 28.5 48.3 127.1 130.0 450.3
05/05 10:20 24.4 54 12.02 14.7 2 2 1017.4 0 26.2 28.3 47.7 125.7 127.9 443.1
05/05 10:10 23.7 57 12.19 14.9 4 4 1017.6 0 26.6 28.8 48.8 128.6 131.3 454.8
05/05 10:00 23.9 57 12.33 14.9 4 7 1017.7 0 26.9 29.0 49.3 129.8 132.8 460.0
05/05 09:50 23.5 57 12.05 14.7 4 4 1017.7 0 26.4 28.6 48.4 127.5 129.8 449.6
05/05 09:40 23.4 57 11.99 14.4 4 4 1017.9 0 26.2 28.6 48.2 127.0 129.2 447.5
05/05 09:30 23.4 57 11.99 14.4 2 4 1017.7 0 26.2 28.6 48.2 127.0 129.2 447.4

Last Refresh: 06-May-2026 01:35:15

Bureau of Meteorology